Etusivu
METAR-TAF:

METAR-TAF

Lentoasemat :

Stornowayn lentoasema

Stornoway, Skotlanti

Leveyspiiri: 58-13N, Pituuspiiri: 006-19W, korkeus merenpinnasta: 9 m

Tämänhetkinen sää

Tämä raportti tehtiin 31 minuuttia sitten, kello 19.20 UTC
Tuuli 5 kn pohjoisen/luoteesta
Lämpötila 14°C
Kosteus 77%
Ilmanpaine 1013 hPa
Näkyvyys 10 km tai enemmän
Muutamia pilviä 1300 ft:n korkeudessa
Hajanaisia pilviä 3900 ft:n korkeudessa

METAR: EGPO 221920Z 34005KT 9999 FEW013 SCT039 14/10 Q1013

Aika: 20:51 (19:51 UTC)

Sääennuste

Tämä raportti tehtiin 2 tuntia ja 54 minuuttia sitten, kello 16.57 UTC
Ennuste voimassa 22. päivästä klo 18 UTC - 23. päivään klo 03 UTC
Tuuli 4 kn eri suunnista
Näkyvyys 10 km tai enemmän
Muutamia pilviä 2000 ft:n korkeudessa
Tulossa
22. päivästä klo 21 UTC - 22. päivään klo 24 UTC
Tuuli 10 kn lännestä/luoteesta

TAF: EGPO 221657Z 2218/2303 VRB04KT 9999 FEW020 BECMG 2221/2224 30010KT

Säähavainnot ja -ennusteet yli 4000 lentoasemalta (METAR- ja TAF-raportit).

Käytössä olevat sääasemat on merkitty karttaan keltaisilla ja punaisilla pisteillä.

Aseta hiiri pisteen päälle nähdäksesi sääaseman nimen.

Klikkaa sitten nähdäksesi säähavainnot ja -ennusteet.

Kartan vaihtaminen: klikkaa mustalla rastilla varustettuja vihreitä pisteitä, niin voit zoomata sisään; viivalla varustettua vihreää pistettä, niin voit zoomata ulos tai vihreitä nuolia, niin pääset viereisille kartoille.


METAR-TAF: